Terminal Aerodrome Forecast
Issued by NWS

Home | Current Version | Previous Version | Text Only | Print | Product List | Glossary On
Versions: 1 2 3 4 5 6 7 8 9 10 11 12 13 14 15 16 17 18 19
964
FTUS43 KIND 142122 AAB
TAFHUF
TAF AMD
KHUF 142122Z 1421/1518 13013KT 1SM -SN BR OVC012
     FM142300 13010KT 2SM -SHSN BR OVC009
     FM150200 15007KT 4SM -SHSN BR OVC012
     FM150600 19005KT 6SM BR VCSH OVC015=

USA.gov is the U.S. government's official web portal to all federal, state and local government web resources and services.